createdAt,value
2019-02-18T00:00:43.724Z,65.10
2019-02-18T00:04:07.365Z,63.90
2019-02-18T00:07:30.983Z,62.50
2019-02-18T00:10:54.509Z,63.80
2019-02-18T00:14:18.102Z,64.90
2019-02-18T00:17:41.798Z,58.83
2019-02-18T00:21:05.337Z,64.80
2019-02-18T00:24:29.103Z,69.30
2019-02-18T00:27:52.606Z,73.77
2019-02-18T00:31:16.299Z,91.00
2019-02-18T00:34:39.749Z,70.30
2019-02-18T00:38:03.443Z,76.20
2019-02-18T00:41:26.854Z,71.70
2019-02-18T00:44:50.371Z,67.03
2019-02-18T00:48:14.045Z,75.40
2019-02-18T00:51:37.906Z,73.03
2019-02-18T00:55:01.617Z,71.87
2019-02-18T00:58:25.051Z,73.13
2019-02-18T01:01:48.728Z,90.50
2019-02-18T01:05:12.289Z,74.30
2019-02-18T01:08:35.907Z,78.43
2019-02-18T01:11:59.451Z,82.07
2019-02-18T01:15:23.112Z,81.97
2019-02-18T01:18:46.541Z,89.80
2019-02-18T01:22:10.201Z,79.80
2019-02-18T01:25:33.713Z,77.77
2019-02-18T01:28:57.226Z,85.27
2019-02-18T01:32:20.766Z,91.13
2019-02-18T01:35:44.451Z,90.63
2019-02-18T01:39:07.902Z,84.67
2019-02-18T01:42:31.438Z,109.70
2019-02-18T01:45:54.897Z,109.17
2019-02-18T01:49:18.521Z,79.40
2019-02-18T01:52:42.173Z,92.80
2019-02-18T01:56:05.631Z,106.23
2019-02-18T01:59:29.209Z,133.73
2019-02-18T02:02:52.770Z,119.57
2019-02-18T02:06:16.343Z,116.53
2019-02-18T02:09:40.023Z,113.73
2019-02-18T02:13:28.661Z,105.27
2019-02-18T02:16:52.415Z,98.77
2019-02-18T02:20:15.995Z,118.03
2019-02-18T02:23:39.713Z,116.90
2019-02-18T02:27:03.276Z,101.50
2019-02-18T02:30:27.120Z,94.40
2019-02-18T02:33:50.823Z,134.50
2019-02-18T02:37:14.407Z,180.50
2019-02-18T02:40:37.954Z,119.10
2019-02-18T02:44:01.769Z,111.30
2019-02-18T02:47:27.078Z,127.20
2019-02-18T02:50:50.726Z,114.57
2019-02-18T02:54:14.167Z,111.60
2019-02-18T02:57:37.765Z,119.57
2019-02-18T03:01:01.406Z,106.07
2019-02-18T03:04:24.945Z,101.63
2019-02-18T03:07:48.693Z,102.70
2019-02-18T03:11:12.283Z,102.23
2019-02-18T03:14:35.705Z,118.80
2019-02-18T03:17:59.225Z,111.37
2019-02-18T03:21:22.886Z,115.27
2019-02-18T03:25:21.489Z,139.90
2019-02-18T03:28:50.852Z,145.43
2019-02-18T03:32:14.367Z,115.47
2019-02-18T03:35:37.863Z,114.60
2019-02-18T03:39:01.330Z,120.10
2019-02-18T03:42:25.003Z,125.47
2019-02-18T03:45:48.456Z,128.77
2019-02-18T03:49:11.962Z,115.60
2019-02-18T03:52:35.438Z,108.17
2019-02-18T03:55:58.969Z,124.60
2019-02-18T03:59:22.574Z,114.97
2019-02-18T04:02:46.199Z,110.43
2019-02-18T04:06:09.719Z,108.53
2019-02-18T04:09:33.736Z,104.43
2019-02-18T04:12:57.585Z,101.93
2019-02-18T04:16:21.070Z,98.37
2019-02-18T04:19:44.699Z,110.67
2019-02-18T04:23:08.916Z,109.90
2019-02-18T04:26:32.381Z,118.77
2019-02-18T04:29:55.967Z,122.20
2019-02-18T04:33:19.454Z,133.40
2019-02-18T04:36:42.935Z,111.53
2019-02-18T04:40:08.506Z,106.73
2019-02-18T04:43:32.071Z,100.47
2019-02-18T04:46:55.771Z,100.87
2019-02-18T04:50:19.356Z,110.00
2019-02-18T04:53:42.895Z,106.00
2019-02-18T04:57:06.440Z,115.07
2019-02-18T05:00:29.961Z,110.77
2019-02-18T05:03:53.498Z,108.70
2019-02-18T05:07:17.079Z,127.50
2019-02-18T05:10:40.759Z,145.13
2019-02-18T05:14:04.353Z,172.03
2019-02-18T05:17:27.901Z,220.50
2019-02-18T05:20:51.403Z,244.20
2019-02-18T05:24:14.898Z,282.97
2019-02-18T05:27:38.496Z,235.57
2019-02-18T05:31:02.028Z,207.13
2019-02-18T05:34:25.592Z,206.20
2019-02-18T05:37:49.086Z,189.80
2019-02-18T05:41:12.749Z,204.33
2019-02-18T05:44:36.275Z,185.07
2019-02-18T05:47:59.865Z,243.23
2019-02-18T05:51:23.520Z,216.10
2019-02-18T05:54:47.129Z,300.20
2019-02-18T05:58:10.869Z,215.67
2019-02-18T06:01:34.619Z,216.07
2019-02-18T06:04:58.164Z,174.37
2019-02-18T06:08:21.604Z,190.37
2019-02-18T06:11:45.087Z,157.27
2019-02-18T06:15:09.859Z,197.03
2019-02-18T06:18:33.561Z,167.30
2019-02-18T06:21:57.066Z,179.97
2019-02-18T06:25:20.667Z,192.10
2019-02-18T06:28:44.201Z,208.80
2019-02-18T06:32:07.964Z,189.13
2019-02-18T06:35:31.447Z,227.03
2019-02-18T06:38:57.516Z,252.07
2019-02-18T06:42:20.051Z,191.00
2019-02-18T06:45:47.906Z,198.97
2019-02-18T06:49:15.804Z,194.00
2019-02-18T06:52:39.525Z,173.70
2019-02-18T06:56:03.098Z,139.93
2019-02-18T06:59:28.359Z,153.37
2019-02-18T07:02:53.655Z,252.63
2019-02-18T07:06:18.903Z,267.97
2019-02-18T07:09:53.238Z,201.90
2019-02-18T07:13:17.043Z,197.27
2019-02-18T07:16:40.585Z,284.77
2019-02-18T07:20:06.208Z,171.20
2019-02-18T07:23:29.703Z,100.53
2019-02-18T07:26:53.887Z,131.00
2019-02-18T07:30:17.564Z,83.93
2019-02-18T07:33:41.146Z,185.83
2019-02-18T07:37:04.664Z,169.80
2019-02-18T07:40:28.202Z,90.60
2019-02-18T07:43:51.882Z,95.03
2019-02-18T07:47:15.443Z,82.27
2019-02-18T07:50:39.327Z,212.97
2019-02-18T07:54:03.006Z,122.03
2019-02-18T07:57:26.771Z,159.03
2019-02-18T08:00:50.279Z,147.00
2019-02-18T08:04:13.753Z,85.00
2019-02-18T08:07:37.283Z,68.83
2019-02-18T08:11:00.957Z,81.47
2019-02-18T08:14:24.766Z,65.40
2019-02-18T08:17:48.344Z,74.97
2019-02-18T08:21:11.939Z,67.07
2019-02-18T08:24:35.578Z,62.60
2019-02-18T08:27:59.132Z,60.27
2019-02-18T08:31:22.882Z,59.20
2019-02-18T08:34:46.491Z,57.07
2019-02-18T08:38:10.150Z,56.57
2019-02-18T08:41:33.826Z,59.73
2019-02-18T08:44:57.554Z,63.63
2019-02-18T08:48:21.296Z,60.70
2019-02-18T08:51:45.855Z,62.87
2019-02-18T08:55:11.974Z,61.60
2019-02-18T08:58:35.605Z,62.23
2019-02-18T09:01:59.185Z,61.87
2019-02-18T09:05:22.865Z,61.03
2019-02-18T09:08:46.473Z,61.27
2019-02-18T09:12:10.008Z,63.13
2019-02-18T09:15:33.489Z,64.43
2019-02-18T09:18:57.004Z,64.23
2019-02-18T09:22:28.386Z,66.77
2019-02-18T09:25:52.906Z,67.07
2019-02-18T09:29:16.497Z,73.37
2019-02-18T09:32:40.163Z,72.17
2019-02-18T09:36:03.911Z,71.03
2019-02-18T09:39:31.069Z,68.63
2019-02-18T09:42:52.685Z,67.07
2019-02-18T09:46:16.373Z,65.20
2019-02-18T09:49:39.981Z,66.87
2019-02-18T09:53:03.424Z,66.73
2019-02-18T09:56:26.971Z,66.17
2019-02-18T09:59:50.578Z,63.40
2019-02-18T10:03:14.055Z,63.07
2019-02-18T10:06:37.658Z,62.37
2019-02-18T10:10:01.306Z,64.40
2019-02-18T10:13:28.037Z,69.10
2019-02-18T10:16:51.513Z,64.43
2019-02-18T10:20:15.181Z,57.70
2019-02-18T10:23:39.212Z,59.70
2019-02-18T10:27:03.350Z,62.50
2019-02-18T10:30:27.034Z,60.30
2019-02-18T10:33:50.511Z,57.87
2019-02-18T10:37:14.119Z,59.80
2019-02-18T10:40:37.764Z,53.17
2019-02-18T10:44:01.237Z,51.80
2019-02-18T10:47:24.908Z,51.80
2019-02-18T10:50:48.479Z,54.10
2019-02-18T10:54:11.995Z,55.17
2019-02-18T10:57:35.625Z,56.03
2019-02-18T11:00:59.404Z,54.03
2019-02-18T11:04:23.096Z,52.00
2019-02-18T11:07:46.892Z,51.37
2019-02-18T11:11:16.966Z,48.20
2019-02-18T11:14:36.709Z,45.93
2019-02-18T11:18:00.236Z,47.40
2019-02-18T11:21:23.819Z,47.00
2019-02-18T11:24:47.422Z,49.83
2019-02-18T11:28:11.103Z,50.80
2019-02-18T11:31:34.639Z,51.13
2019-02-18T11:35:00.511Z,51.90
2019-02-18T11:38:23.663Z,53.40
2019-02-18T11:41:47.343Z,51.77
2019-02-18T11:45:13.051Z,56.13
2019-02-18T11:48:36.611Z,52.83
2019-02-18T11:52:00.414Z,54.07
2019-02-18T11:55:26.144Z,56.30
2019-02-18T11:58:49.695Z,57.93
2019-02-18T12:02:13.281Z,60.13
2019-02-18T12:05:36.796Z,58.47
2019-02-18T12:09:00.694Z,54.17
2019-02-18T12:12:24.614Z,52.97
2019-02-18T12:15:48.300Z,45.43
2019-02-18T12:19:11.971Z,40.90
2019-02-18T12:22:35.484Z,43.93
2019-02-18T12:25:59.243Z,42.30
2019-02-18T12:29:26.566Z,42.80
2019-02-18T12:32:48.221Z,38.77
2019-02-18T12:36:12.254Z,35.90
2019-02-18T12:39:35.871Z,36.97
2019-02-18T12:42:59.459Z,34.57
2019-02-18T12:46:23.184Z,36.57
2019-02-18T12:49:46.654Z,36.90
2019-02-18T12:53:10.350Z,36.57
2019-02-18T12:56:33.924Z,32.50
2019-02-18T12:59:57.497Z,34.50
2019-02-18T13:03:21.265Z,35.17
2019-02-18T13:06:45.209Z,33.40
2019-02-18T13:10:10.586Z,33.20
2019-02-18T13:13:34.479Z,33.63
2019-02-18T13:16:58.053Z,35.07
2019-02-18T13:20:21.619Z,34.50
2019-02-18T13:23:46.841Z,34.07
2019-02-18T13:27:11.027Z,35.50
2019-02-18T13:30:34.688Z,34.87
2019-02-18T13:33:58.167Z,35.83
2019-02-18T13:37:21.754Z,33.77
2019-02-18T13:40:45.284Z,33.73
2019-02-18T13:44:08.904Z,31.50
2019-02-18T13:47:32.443Z,31.90
2019-02-18T13:50:56.046Z,31.63
2019-02-18T13:54:19.787Z,29.23
2019-02-18T13:57:43.811Z,32.03
2019-02-18T14:01:07.420Z,31.67
2019-02-18T14:04:31.218Z,31.10
2019-02-18T14:07:54.805Z,31.00
2019-02-18T14:11:18.675Z,32.50
2019-02-18T14:14:42.579Z,32.67
2019-02-18T14:18:06.688Z,33.50
2019-02-18T14:21:30.348Z,32.30
2019-02-18T14:24:53.858Z,37.37
2019-02-18T14:28:17.785Z,34.90
2019-02-18T14:31:41.564Z,35.33
2019-02-18T14:35:06.384Z,37.63
2019-02-18T14:38:30.223Z,37.20
2019-02-18T14:41:53.828Z,37.57
2019-02-18T14:45:21.542Z,39.37
2019-02-18T14:48:45.181Z,38.33
2019-02-18T14:52:08.653Z,40.40
2019-02-18T14:55:32.284Z,38.57
2019-02-18T14:59:00.122Z,41.80
2019-02-18T15:02:28.280Z,37.97
2019-02-18T15:05:52.047Z,39.20
2019-02-18T15:09:15.657Z,39.70
2019-02-18T15:12:40.143Z,39.93
2019-02-18T15:16:03.777Z,39.57
2019-02-18T15:19:28.069Z,40.17
2019-02-18T15:22:52.071Z,40.50
2019-02-18T15:26:18.414Z,38.83
2019-02-18T15:29:45.694Z,41.87
2019-02-18T15:33:11.105Z,41.43
2019-02-18T15:36:34.740Z,40.93
2019-02-18T15:39:59.287Z,40.33
2019-02-18T15:43:23.067Z,40.17
2019-02-18T15:46:47.142Z,40.33
2019-02-18T15:50:16.849Z,39.10
2019-02-18T15:53:40.499Z,53.80
2019-02-18T15:57:04.491Z,64.53
2019-02-18T16:00:28.576Z,326.37
2019-02-18T16:03:52.508Z,140.90
2019-02-18T16:07:16.210Z,359.43
2019-02-18T16:10:40.055Z,146.13
2019-02-18T16:14:03.938Z,275.27
2019-02-18T16:17:27.911Z,190.30
2019-02-18T16:20:51.547Z,87.07
2019-02-18T16:24:20.007Z,90.10
2019-02-18T16:27:40.998Z,102.67
2019-02-18T16:31:04.651Z,131.97
2019-02-18T16:34:28.195Z,128.70
2019-02-18T16:37:51.960Z,187.13
2019-02-18T16:41:15.974Z,117.37
2019-02-18T16:44:39.681Z,80.80
2019-02-18T16:48:04.446Z,99.97
2019-02-18T16:51:29.099Z,79.47
2019-02-18T16:54:52.994Z,66.43
2019-02-18T16:58:17.064Z,85.30
2019-02-18T17:01:40.802Z,57.87
2019-02-18T17:05:05.386Z,109.00
2019-02-18T17:08:29.218Z,101.03
2019-02-18T17:11:53.387Z,91.33
2019-02-18T17:15:17.276Z,95.93
2019-02-18T17:18:43.979Z,86.07
2019-02-18T17:22:11.272Z,102.03
2019-02-18T17:25:35.282Z,89.40
2019-02-18T17:28:59.469Z,101.03
2019-02-18T17:32:23.895Z,105.33
2019-02-18T17:35:47.810Z,58.13
2019-02-18T17:39:12.447Z,94.27
2019-02-18T17:42:36.091Z,94.73
2019-02-18T17:46:00.281Z,68.93
2019-02-18T17:49:24.499Z,54.40
2019-02-18T17:52:49.304Z,84.80
2019-02-18T17:56:13.946Z,92.93
2019-02-18T17:59:38.778Z,88.87
2019-02-18T18:03:02.415Z,105.60
2019-02-18T18:06:26.309Z,106.20
2019-02-18T18:09:50.307Z,95.43
2019-02-18T18:13:13.963Z,115.33
2019-02-18T18:16:37.755Z,99.23
2019-02-18T18:20:04.452Z,110.23
2019-02-18T18:23:28.165Z,117.30
2019-02-18T18:26:52.275Z,112.57
2019-02-18T18:30:19.807Z,113.10
2019-02-18T18:33:43.536Z,108.57
2019-02-18T18:37:07.079Z,106.83
2019-02-18T18:40:30.746Z,106.33
2019-02-18T18:43:54.438Z,116.43
2019-02-18T18:47:18.186Z,114.50
2019-02-18T18:50:43.435Z,116.50
2019-02-18T18:54:07.043Z,121.23
2019-02-18T18:57:30.948Z,119.43
2019-02-18T19:00:54.728Z,117.63
2019-02-18T19:04:18.540Z,119.10
2019-02-18T19:07:42.080Z,129.13
2019-02-18T19:11:05.963Z,124.03
2019-02-18T19:14:29.698Z,142.93
2019-02-18T19:17:53.551Z,132.47
2019-02-18T19:21:17.372Z,137.53
2019-02-18T19:24:41.031Z,131.37
2019-02-18T19:28:04.669Z,133.20
2019-02-18T19:31:28.855Z,135.57
2019-02-18T19:34:52.770Z,152.57
2019-02-18T19:38:16.938Z,144.17
2019-02-18T19:41:40.711Z,131.73
2019-02-18T19:45:10.879Z,159.07
2019-02-18T19:48:34.859Z,130.50
2019-02-18T19:51:58.492Z,154.03
2019-02-18T19:55:22.784Z,164.13
2019-02-18T19:58:46.296Z,170.60
2019-02-18T20:02:09.935Z,168.10
2019-02-18T20:05:33.694Z,153.37
2019-02-18T20:08:57.294Z,154.47
2019-02-18T20:12:20.829Z,146.43
2019-02-18T20:15:44.524Z,158.17
2019-02-18T20:19:08.041Z,164.20
2019-02-18T20:22:31.912Z,145.60
2019-02-18T20:25:55.546Z,141.90
2019-02-18T20:29:19.319Z,142.60
2019-02-18T20:32:42.826Z,138.90
2019-02-18T20:36:06.606Z,140.00
2019-02-18T20:39:30.277Z,165.13
2019-02-18T20:42:54.488Z,145.70
2019-02-18T20:46:18.242Z,135.93
2019-02-18T20:49:41.878Z,136.23
2019-02-18T20:53:05.605Z,146.03
2019-02-18T20:56:29.454Z,142.73
2019-02-18T20:59:53.015Z,135.77
2019-02-18T21:03:16.622Z,137.53
2019-02-18T21:06:40.402Z,131.53
2019-02-18T21:10:05.063Z,134.27
2019-02-18T21:13:28.961Z,130.83
2019-02-18T21:16:52.497Z,113.57
2019-02-18T21:20:17.142Z,125.40
2019-02-18T21:23:41.084Z,150.20
2019-02-18T21:27:04.787Z,138.10
2019-02-18T21:30:28.602Z,145.33
2019-02-18T21:33:52.154Z,139.73
2019-02-18T21:37:15.640Z,132.70
2019-02-18T21:40:39.260Z,128.97
2019-02-18T21:44:03.031Z,131.33
2019-02-18T21:47:26.668Z,125.17
2019-02-18T21:50:50.125Z,135.07
2019-02-18T21:54:13.635Z,133.70
2019-02-18T21:57:37.279Z,131.13
2019-02-18T22:01:00.964Z,121.70
2019-02-18T22:04:24.521Z,124.33
2019-02-18T22:07:48.021Z,119.13
2019-02-18T22:11:12.904Z,117.77
2019-02-18T22:14:37.071Z,121.33
2019-02-18T22:18:00.564Z,120.63
2019-02-18T22:21:25.129Z,119.70
2019-02-18T22:24:48.639Z,123.63
2019-02-18T22:28:12.371Z,123.67
2019-02-18T22:31:36.490Z,124.70
2019-02-18T22:35:00.680Z,119.30
2019-02-18T22:38:24.323Z,118.97
2019-02-18T22:41:47.797Z,123.47
2019-02-18T22:45:11.895Z,116.07
2019-02-18T22:48:35.592Z,115.17
2019-02-18T22:51:59.376Z,115.37
2019-02-18T22:55:22.951Z,126.87
2019-02-18T22:58:46.584Z,128.53
2019-02-18T23:02:10.303Z,123.73
2019-02-18T23:05:33.861Z,131.47
2019-02-18T23:08:57.730Z,134.20
2019-02-18T23:12:21.690Z,131.53
2019-02-18T23:15:45.374Z,133.27
2019-02-18T23:19:10.173Z,129.50
2019-02-18T23:22:33.863Z,128.77
2019-02-18T23:25:57.465Z,146.43
2019-02-18T23:29:21.018Z,146.80
2019-02-18T23:32:44.559Z,144.87
2019-02-18T23:36:08.505Z,137.20
2019-02-18T23:39:32.123Z,141.23
2019-02-18T23:42:55.946Z,148.63
2019-02-18T23:46:19.331Z,142.50
2019-02-18T23:49:43.035Z,146.50
2019-02-18T23:53:06.882Z,145.43
2019-02-18T23:56:30.543Z,134.63
2019-02-18T23:59:54.115Z,137.87
